Abbeville, SC (29620)

6:50 AM EST on December 05, 2016 (GMT -0500)
Mt. Carmel Rd. | | Change Station

Elev 614 ft 34.12 °N, 82.42 °W | Updated 16 seconds ago

Overcast
Overcast
43.3 °F
Feels Like 43 °F
N
0.0
Wind Variable Wind from ESE

Today
High -- | Low -- °F
--% Chance of Precip.
Yesterday
High -- | Low -- °F
Precip. -- in
Pressure 30.01 in
Visibility 10.0 miles
Clouds Overcast 1500 ft
Windchill 43 °F
Dew Point 43 °F
Humidity 99%
Rainfall 0.13 in
Snow Depth Not available.
7:20 AM 5:19 PM
Waxing Crescent, 31% visible
METAR KGRD 051056Z AUTO 00000KT 10SM OVC015 06/05 A3000 RMK AO2 SLP161 T00610050 TSNO
Pressure 30.01 in
Visibility 10.0 miles
Clouds Overcast 1500 ft
Windchill 43 °F
Dew Point 43 °F
Humidity 99%
Rainfall 0.13 in
Snow Depth Not available.
7:20 AM 5:19 PM
Waxing Crescent, 31% visible
METAR KGRD 051056Z AUTO 00000KT 10SM OVC015 06/05 A3000 RMK AO2 SLP161 T00610050 TSNO

10-Day Weather Forecast

Almanac

Astronomy

Dec. 05, 2016 Rise Set
Actual Time
Civil Twilight
Nautical Twilight
Astronomical Twilight
Moon
Length of Visible Light
Length of Day
Tomorrow will be .
, % of the Moon is Illuminated

Today's Extremes

State Highs State Lows

Community

WunderPhotos

Upload Photos

1,955,777 photos uploaded!

WunderBlog® & News

Nearby

Air Quality

  Air Quality AQ Index Pollutant
Not available.

Snow Depth

Station Depth Elevation

Earthquake Activity

City Distance Mag. Time & Date
Minimum magnitude displayed is 2.5.

Coastal Water Temperatures

Place Temperature

Stations

Nearby Weather Stations

Station Location Temp. Windchill Dew Point Humidity Wind Precip. Elev Updated Type
                   

Watches & Warnings

There are currently no watches in effect.